Time;durP1;ratioP1;P1;durP2;ratioP2;P2;SDS_P1;SDS_P2;PMS_P1;PMS_P2;Temp;Humidity;BMP_temperature;BMP_pressure;BME280_temperature;BME280_humidity;BME280_pressure;Samples;Min_cycle;Max_cycle;Signal;HPM_P1;HPM_P2
2023/04/03 00:00:49;;;;;;;5.20;4.73;;;3.50;1.00;;;;;;5096805;28;20207;-45
2023/04/03 00:03:15;;;;;;;7.60;4.97;;;3.50;1.00;;;;;;5097292;28;20569;-46
2023/04/03 00:05:41;;;;;;;5.30;4.80;;;3.50;1.00;;;;;;5095755;28;20457;-44
2023/04/03 00:08:09;;;;;;;6.33;4.80;;;3.50;1.00;;;;;;5095842;28;20198;-45
2023/04/03 00:10:35;;;;;;;4.50;4.10;;;3.50;1.00;;;;;;5096155;28;20710;-46
2023/04/03 00:13:01;;;;;;;4.40;4.00;;;3.60;1.00;;;;;;5096661;28;20423;-45
2023/04/03 00:15:27;;;;;;;4.40;4.00;;;3.50;1.00;;;;;;5097787;28;20453;-43
2023/04/03 00:17:54;;;;;;;5.60;4.43;;;3.50;1.00;;;;;;5096305;28;20422;-45
2023/04/03 00:20:20;;;;;;;6.27;5.13;;;3.50;1.00;;;;;;5095692;28;20254;-45
2023/04/03 00:22:45;;;;;;;6.50;5.00;;;3.50;1.00;;;;;;5095068;28;20450;-44
2023/04/03 00:25:11;;;;;;;5.17;4.73;;;3.50;1.00;;;;;;5096295;28;20511;-45
2023/04/03 00:27:39;;;;;;;5.30;4.77;;;3.50;1.00;;;;;;5095621;28;20481;-45
2023/04/03 00:30:05;;;;;;;7.50;4.40;;;3.40;1.00;;;;;;5078489;28;20213;-45
2023/04/03 00:32:31;;;;;;;5.20;4.67;;;3.40;1.00;;;;;;5095091;28;20916;-47
2023/04/03 00:34:57;;;;;;;5.30;4.80;;;3.30;1.00;;;;;;5095995;28;20441;-44
2023/04/03 00:37:22;;;;;;;5.63;5.03;;;3.30;1.00;;;;;;5095781;28;20187;-47
2023/04/03 00:39:48;;;;;;;6.10;5.50;;;3.30;1.00;;;;;;5095274;28;20591;-45
2023/04/03 00:42:14;;;;;;;8.33;5.07;;;3.30;99.90;;;;;;5095430;28;20198;-45
2023/04/03 00:44:39;;;;;;;5.07;4.50;;;3.20;1.00;;;;;;5095899;28;20173;-44
2023/04/03 00:47:08;;;;;;;7.87;5.00;;;3.30;1.00;;;;;;5095353;28;20414;-45
2023/04/03 00:49:35;;;;;;;5.80;5.20;;;3.30;99.90;;;;;;5094359;28;20176;-43
2023/04/03 00:52:00;;;;;;;4.90;4.23;;;3.30;1.00;;;;;;5095017;28;20563;-43
2023/04/03 00:54:26;;;;;;;4.87;4.37;;;3.30;1.00;;;;;;5094817;28;20515;-46
2023/04/03 00:56:53;;;;;;;4.90;4.23;;;3.30;1.00;;;;;;5094268;28;20160;-46
2023/04/03 00:59:25;;;;;;;5.43;4.90;;;3.30;1.00;;;;;;5094823;28;20488;-45
2023/04/03 01:01:51;;;;;;;4.90;4.27;;;3.30;99.90;;;;;;5094867;28;20859;-44
2023/04/03 01:04:36;;;;;;;6.27;4.60;;;3.30;1.00;;;;;;5092791;28;20525;-43
2023/04/03 01:07:07;;;;;;;7.37;4.43;;;3.20;99.90;;;;;;5094473;28;20422;-43
2023/04/03 01:09:33;;;;;;;6.53;4.80;;;3.10;99.90;;;;;;5095591;28;20418;-43
2023/04/03 01:12:20;;;;;;;6.40;4.50;;;3.10;99.90;;;;;;5095327;28;20580;-45
2023/04/03 01:14:46;;;;;;;6.63;4.87;;;3.20;99.90;;;;;;5095656;28;20454;-42
2023/04/03 01:17:33;;;;;;;5.00;4.50;;;3.20;99.90;;;;;;5094330;28;20410;-44
2023/04/03 01:20:36;;;;;;;4.67;4.27;;;3.20;99.90;;;;;;5095791;28;20422;-43
2023/04/03 01:23:10;;;;;;;5.20;4.70;;;3.20;99.90;;;;;;5095866;28;20406;-46
2023/04/03 01:25:38;;;;;;;5.40;4.70;;;3.10;99.90;;;;;;5095803;28;20422;-44
2023/04/03 01:28:05;;;;;;;5.10;4.60;;;3.10;99.90;;;;;;5094888;28;20467;-46
2023/04/03 01:30:38;;;;;;;6.53;4.30;;;3.20;99.90;;;;;;5095373;28;20421;-47
2023/04/03 01:33:04;;;;;;;4.87;4.47;;;3.20;99.90;;;;;;5094358;28;20464;-43
2023/04/03 01:35:31;;;;;;;4.40;4.10;;;3.20;99.90;;;;;;5095470;28;20511;-44
2023/04/03 01:37:56;;;;;;;5.03;4.63;;;3.20;99.90;;;;;;5095387;28;20414;-44
2023/04/03 01:40:22;;;;;;;6.17;5.33;;;3.20;99.90;;;;;;5094923;28;20184;-43
2023/04/03 01:42:47;;;;;;;4.77;4.37;;;3.20;99.90;;;;;;5096206;28;20253;-42
2023/04/03 01:45:13;;;;;;;5.77;4.60;;;3.20;99.90;;;;;;5095773;28;20177;-45
2023/04/03 01:47:39;;;;;;;5.83;4.30;;;3.20;1.00;;;;;;5095401;28;20184;-46
2023/04/03 01:50:05;;;;;;;5.30;4.90;;;3.20;1.00;;;;;;5095357;28;20222;-43
2023/04/03 01:52:30;;;;;;;6.50;4.60;;;3.10;1.00;;;;;;5095512;28;20212;-45
2023/04/03 01:54:56;;;;;;;5.13;4.23;;;3.10;1.00;;;;;;5095595;28;21112;-46
2023/04/03 01:57:21;;;;;;;5.17;4.67;;;3.10;18.90;;;;;;5095903;28;20905;-45
2023/04/03 01:59:53;;;;;;;5.20;4.70;;;3.10;1.00;;;;;;5095965;28;20188;-43
2023/04/03 02:02:20;;;;;;;4.90;4.40;;;3.10;1.00;;;;;;5095944;28;20217;-44
2023/04/03 02:04:45;;;;;;;4.73;4.30;;;3.10;25.30;;;;;;5095743;28;20414;-43
2023/04/03 02:07:11;;;;;;;5.43;4.67;;;3.10;71.20;;;;;;5093580;28;20446;-43
2023/04/03 02:09:37;;;;;;;4.57;4.17;;;3.10;1.00;;;;;;5095498;28;20184;-44
2023/04/03 02:12:02;;;;;;;4.70;4.30;;;3.10;63.20;;;;;;5095068;28;20204;-44
2023/04/03 02:14:28;;;;;;;6.47;4.63;;;3.10;60.80;;;;;;5095603;28;20185;-44
2023/04/03 02:16:54;;;;;;;5.30;4.60;;;3.10;99.90;;;;;;5099151;28;20242;-45
2023/04/03 02:19:19;;;;;;;5.70;4.87;;;3.10;74.10;;;;;;5098659;28;20180;-48
2023/04/03 02:21:45;;;;;;;4.77;4.27;;;3.10;49.60;;;;;;5098081;28;20184;-44
2023/04/03 02:24:11;;;;;;;4.87;4.47;;;3.10;37.70;;;;;;5097068;28;20333;-44
2023/04/03 02:26:36;;;;;;;4.67;4.27;;;3.10;15.30;;;;;;5097063;28;20238;-46
2023/04/03 02:29:02;;;;;;;4.73;3.57;;;3.00;1.00;;;;;;5096350;28;20184;-44
2023/04/03 02:31:28;;;;;;;5.20;4.17;;;3.00;84.00;;;;;;5096701;28;20220;-43
2023/04/03 02:33:53;;;;;;;5.20;4.07;;;3.00;98.30;;;;;;5097610;28;20406;-46
2023/04/03 02:36:19;;;;;;;5.10;4.50;;;3.00;80.90;;;;;;5097959;28;20560;-44
2023/04/03 02:38:45;;;;;;;5.13;4.63;;;3.00;99.90;;;;;;5098376;28;20180;-43
2023/04/03 02:41:11;;;;;;;8.10;4.50;;;3.00;99.60;;;;;;5098949;28;20255;-45
2023/04/03 02:43:38;;;;;;;6.40;5.10;;;3.00;99.90;;;;;;5098932;28;20424;-43
2023/04/03 02:46:04;;;;;;;6.63;5.20;;;3.00;99.90;;;;;;5098671;28;20708;-45
2023/04/03 02:48:29;;;;;;;5.03;4.40;;;3.00;99.90;;;;;;5098382;28;20855;-44
2023/04/03 02:50:55;;;;;;;5.10;4.57;;;3.00;99.90;;;;;;5097579;28;20569;-46
2023/04/03 02:53:21;;;;;;;5.47;4.97;;;3.00;99.90;;;;;;5097135;28;20447;-45
2023/04/03 02:55:46;;;;;;;4.90;4.40;;;3.00;99.90;;;;;;5097327;28;20176;-44
2023/04/03 02:58:12;;;;;;;4.87;4.37;;;3.10;99.90;;;;;;5098008;28;20189;-44
2023/04/03 03:00:38;;;;;;;4.83;4.20;;;3.10;99.90;;;;;;5096019;28;20173;-45
2023/04/03 03:03:04;;;;;;;5.90;4.30;;;3.10;99.90;;;;;;5097215;28;20442;-46
2023/04/03 03:05:30;;;;;;;5.40;4.40;;;3.10;99.90;;;;;;5095298;28;20218;-42
2023/04/03 03:07:55;;;;;;;4.70;3.87;;;3.10;99.90;;;;;;5097791;28;20429;-45
2023/04/03 03:10:21;;;;;;;6.60;5.27;;;3.10;99.90;;;;;;5096246;28;20426;-46
2023/04/03 03:12:47;;;;;;;7.87;4.67;;;3.10;99.90;;;;;;5095567;28;20212;-43
2023/04/03 03:15:13;;;;;;;4.83;4.43;;;3.10;99.90;;;;;;5094052;28;20410;-46
2023/04/03 03:17:38;;;;;;;4.80;4.30;;;3.10;99.90;;;;;;5094327;28;20180;-45
2023/04/03 03:20:05;;;;;;;5.13;4.63;;;3.10;99.90;;;;;;5094219;28;20177;-43
2023/04/03 03:22:31;;;;;;;5.80;5.17;;;3.20;99.90;;;;;;5094556;28;20180;-44
2023/04/03 03:24:57;;;;;;;4.83;4.20;;;3.20;99.90;;;;;;5094442;28;20422;-43
2023/04/03 03:27:23;;;;;;;5.10;4.23;;;3.10;99.90;;;;;;5094416;28;20729;-44
2023/04/03 03:29:49;;;;;;;6.80;5.00;;;3.10;99.90;;;;;;5097607;28;20188;-43
2023/04/03 03:32:14;;;;;;;4.80;4.20;;;3.10;78.60;;;;;;5097442;28;20606;-44
2023/04/03 03:34:40;;;;;;;5.33;4.83;;;3.10;69.60;;;;;;5096977;28;20184;-46
2023/04/03 03:37:06;;;;;;;4.90;4.50;;;3.10;99.90;;;;;;5096577;28;20573;-46
2023/04/03 03:39:31;;;;;;;6.53;4.90;;;3.20;1.00;;;;;;5095994;28;20176;-45
2023/04/03 03:41:57;;;;;;;5.23;4.00;;;3.20;1.00;;;;;;5095222;28;20616;-44
2023/04/03 03:44:22;;;;;;;4.73;4.20;;;3.20;1.00;;;;;;5095175;28;20176;-45
2023/04/03 03:46:48;;;;;;;6.00;4.47;;;3.20;1.00;;;;;;5095763;28;20189;-46
2023/04/03 03:49:13;;;;;;;4.47;4.07;;;3.20;1.00;;;;;;5094317;28;20559;-45
2023/04/03 03:51:40;;;;;;;5.00;4.50;;;3.20;1.00;;;;;;5092878;28;20220;-45
2023/04/03 03:54:06;;;;;;;4.60;4.20;;;3.20;99.90;;;;;;5094532;28;20180;-46
2023/04/03 03:56:32;;;;;;;3.80;3.50;;;3.10;21.80;;;;;;5094669;28;20800;-45
2023/04/03 03:58:58;;;;;;;4.30;3.90;;;3.10;1.00;;;;;;5094914;28;20413;-45
2023/04/03 04:01:24;;;;;;;4.70;4.30;;;3.10;1.00;;;;;;5094457;28;20807;-43
2023/04/03 04:03:50;;;;;;;4.80;3.73;;;3.10;1.00;;;;;;5095853;28;20176;-45
2023/04/03 04:06:16;;;;;;;4.30;3.90;;;3.10;1.00;;;;;;5096093;28;20410;-45
2023/04/03 04:08:41;;;;;;;5.23;4.03;;;3.00;99.90;;;;;;5094701;28;20469;-43
2023/04/03 04:11:07;;;;;;;4.80;4.10;;;3.00;1.00;;;;;;5095551;28;20461;-43
2023/04/03 04:13:33;;;;;;;5.13;4.63;;;3.00;1.00;;;;;;5095087;28;20172;-45
2023/04/03 04:15:59;;;;;;;5.17;4.67;;;3.10;99.90;;;;;;5096984;28;20475;-43
2023/04/03 04:18:24;;;;;;;4.40;4.00;;;3.10;99.90;;;;;;5096201;28;20176;-44
2023/04/03 04:20:50;;;;;;;4.30;3.90;;;3.10;99.90;;;;;;5095881;28;20172;-43
2023/04/03 04:23:17;;;;;;;5.00;4.50;;;3.10;99.90;;;;;;5095104;28;20214;-46
2023/04/03 04:25:47;;;;;;;5.57;4.17;;;3.10;99.90;;;;;;5096162;28;20180;-44
2023/04/03 04:28:13;;;;;;;3.90;3.60;;;3.20;99.90;;;;;;5094927;28;20639;-45
2023/04/03 04:30:38;;;;;;;4.33;3.70;;;3.20;99.90;;;;;;5092739;28;20918;-44
2023/04/03 04:33:04;;;;;;;4.60;4.20;;;3.20;99.90;;;;;;5092785;28;20561;-44
2023/04/03 04:35:30;;;;;;;4.60;4.20;;;3.20;90.80;;;;;;5091814;28;20237;-43
2023/04/03 04:37:56;;;;;;;5.50;4.07;;;3.20;7.80;;;;;;5087708;28;20513;-43
2023/04/03 04:40:22;;;;;;;5.30;4.77;;;3.10;56.50;;;;;;5088748;28;20179;-44
2023/04/03 04:42:47;;;;;;;6.27;4.27;;;3.10;99.60;;;;;;5090248;28;20605;-45
2023/04/03 04:45:13;;;;;;;6.07;4.60;;;3.10;60.30;;;;;;5091363;28;20498;-45
2023/04/03 04:47:38;;;;;;;4.27;3.70;;;3.20;1.00;;;;;;5090156;28;20200;-45
2023/04/03 04:50:05;;;;;;;5.53;4.37;;;3.10;24.60;;;;;;5090873;28;20552;-44
2023/04/03 04:52:30;;;;;;;4.90;4.17;;;3.10;99.90;;;;;;5092467;28;20223;-45
2023/04/03 04:54:56;;;;;;;5.60;4.03;;;3.10;98.60;;;;;;5091283;28;20681;-43
2023/04/03 04:57:21;;;;;;;5.97;4.57;;;3.10;45.60;;;;;;5088603;28;20276;-46
2023/04/03 04:59:47;;;;;;;5.97;4.47;;;3.10;1.00;;;;;;5087833;28;20199;-45
2023/04/03 05:02:13;;;;;;;4.77;4.27;;;3.20;1.00;;;;;;5090409;28;20387;-44
2023/04/03 05:04:38;;;;;;;4.67;3.90;;;3.20;1.00;;;;;;5089794;28;20172;-44
2023/04/03 05:07:04;;;;;;;3.73;3.43;;;3.20;1.00;;;;;;5088411;28;20196;-45
2023/04/03 05:09:30;;;;;;;5.70;4.70;;;3.20;1.00;;;;;;5088506;28;20509;-43
2023/04/03 05:11:56;;;;;;;4.67;4.27;;;3.20;99.90;;;;;;5087770;28;20243;-45
2023/04/03 05:14:21;;;;;;;6.50;4.43;;;3.20;99.90;;;;;;5088885;28;20489;-45
2023/04/03 05:16:47;;;;;;;4.50;4.10;;;3.20;99.90;;;;;;5091089;28;20429;-44
2023/04/03 05:19:13;;;;;;;3.97;3.10;;;3.10;99.90;;;;;;5090236;28;20670;-46
2023/04/03 05:21:38;;;;;;;4.17;3.77;;;3.20;1.00;;;;;;5090825;28;20180;-46
2023/04/03 05:24:04;;;;;;;3.40;3.10;;;3.20;1.00;;;;;;5088066;28;20183;-43
2023/04/03 05:26:31;;;;;;;4.17;3.77;;;3.20;1.00;;;;;;5089267;28;20228;-44
2023/04/03 05:28:56;;;;;;;3.70;3.20;;;3.20;1.00;;;;;;5090086;28;20411;-44
2023/04/03 05:31:22;;;;;;;4.60;3.53;;;3.30;1.00;;;;;;5088592;28;20559;-44
2023/04/03 05:33:48;;;;;;;4.80;3.73;;;3.30;1.00;;;;;;5091139;28;20547;-45
2023/04/03 05:36:14;;;;;;;3.60;3.30;;;3.40;1.00;;;;;;5092389;28;20191;-44
2023/04/03 05:38:40;;;;;;;5.40;3.37;;;3.40;1.00;;;;;;5090414;28;20495;-43
2023/04/03 05:41:06;;;;;;;6.07;3.70;;;3.50;1.00;;;;;;5088937;28;20529;-44
2023/04/03 05:43:33;;;;;;;4.60;3.30;;;3.50;99.90;;;;;;5088625;28;20479;-43
2023/04/03 05:45:59;;;;;;;5.10;3.37;;;3.60;99.90;;;;;;5088916;28;20242;-45
2023/04/03 05:48:25;;;;;;;3.10;2.80;;;3.60;99.90;;;;;;5087115;28;20434;-43
2023/04/03 05:50:51;;;;;;;4.47;3.40;;;3.70;99.90;;;;;;5091502;28;20291;-42
2023/04/03 05:53:22;;;;;;;3.90;3.27;;;3.80;99.90;;;;;;5090606;28;20806;-43
2023/04/03 05:55:47;;;;;;;3.30;3.00;;;3.80;99.90;;;;;;5091103;28;20232;-44
2023/04/03 05:58:13;;;;;;;4.00;3.33;;;4.00;99.90;;;;;;5091761;28;20418;-43
2023/04/03 06:00:39;;;;;;;3.50;3.20;;;4.10;99.90;;;;;;5092626;28;20491;-46
2023/04/03 06:03:06;;;;;;;5.90;2.90;;;4.10;99.90;;;;;;5090582;28;20169;-43
2023/04/03 06:05:41;;;;;;;4.37;2.70;;;4.20;99.90;;;;;;5091859;28;20461;-43
2023/04/03 06:08:08;;;;;;;3.47;3.17;;;4.30;99.90;;;;;;5091880;28;20688;-45
2023/04/03 06:10:34;;;;;;;6.10;3.47;;;4.40;79.80;;;;;;5091360;28;20473;-45
2023/04/03 06:13:00;;;;;;;4.47;3.20;;;4.50;67.00;;;;;;5091665;28;20491;-44
2023/04/03 06:15:26;;;;;;;2.83;2.60;;;4.60;71.20;;;;;;5072758;28;20180;-43
2023/04/03 06:17:52;;;;;;;6.00;3.50;;;4.60;53.40;;;;;;5072477;28;20423;-45
2023/04/03 06:20:17;;;;;;;7.87;4.20;;;4.60;53.90;;;;;;5073473;28;20177;-46
2023/04/03 06:22:43;;;;;;;5.80;3.50;;;4.60;56.00;;;;;;5073219;28;20219;-44
2023/04/03 06:25:09;;;;;;;6.10;4.10;;;4.60;66.80;;;;;;5074263;28;20250;-43
2023/04/03 06:27:35;;;;;;;7.23;3.80;;;4.50;77.10;;;;;;5075310;28;20255;-43
2023/04/03 06:30:01;;;;;;;4.40;4.00;;;4.50;88.40;;;;;;5072289;28;20915;-43
2023/04/03 06:32:26;;;;;;;5.00;3.87;;;4.50;72.90;;;;;;5072873;28;20228;-42
2023/04/03 06:34:53;;;;;;;3.93;3.20;;;4.50;84.30;;;;;;5073228;28;20173;-44
2023/04/03 06:37:20;;;;;;;6.70;4.23;;;4.60;93.80;;;;;;5073590;28;20271;-46
2023/04/03 06:39:46;;;;;;;3.93;3.60;;;4.60;53.50;;;;;;5071139;28;20699;-43
2023/04/03 06:42:12;;;;;;;4.43;3.40;;;4.70;73.70;;;;;;5069228;28;20844;-44
2023/04/03 06:44:38;;;;;;;3.53;3.20;;;4.70;63.00;;;;;;5070203;28;20510;-43
2023/04/03 06:47:04;;;;;;;4.20;3.80;;;4.70;75.50;;;;;;5069316;28;20860;-44
2023/04/03 06:49:31;;;;;;;3.80;3.23;;;4.80;62.80;;;;;;5071515;28;20408;-43
2023/04/03 06:51:57;;;;;;;3.83;3.53;;;5.10;56.70;;;;;;5071515;28;20478;-44
2023/04/03 06:54:23;;;;;;;3.50;3.20;;;5.20;42.10;;;;;;5071486;28;20411;-44
2023/04/03 06:56:50;;;;;;;3.90;3.50;;;5.30;16.30;;;;;;5071741;28;20427;-44
2023/04/03 06:59:16;;;;;;;3.73;3.43;;;5.40;5.30;;;;;;5070363;28;20681;-44
2023/04/03 07:01:42;;;;;;;3.40;3.10;;;5.50;6.70;;;;;;5070547;28;20502;-44
2023/04/03 07:04:08;;;;;;;3.60;3.30;;;5.70;1.00;;;;;;5072546;28;20498;-43
2023/04/03 07:06:34;;;;;;;3.90;3.60;;;5.80;1.00;;;;;;5071494;28;20593;-46
2023/04/03 07:09:01;;;;;;;4.90;3.30;;;6.00;1.00;;;;;;5069779;28;20529;-44
2023/04/03 07:11:27;;;;;;;3.80;3.40;;;6.00;1.00;;;;;;5066108;28;20481;-42
2023/04/03 07:13:53;;;;;;;4.10;3.70;;;6.10;1.00;;;;;;5069020;28;20630;-45
2023/04/03 07:16:19;;;;;;;4.10;3.27;;;6.10;1.00;;;;;;5074681;28;20430;-44
2023/04/03 07:18:45;;;;;;;4.03;3.63;;;6.20;1.00;;;;;;5090476;28;20822;-44
2023/04/03 07:21:11;;;;;;;4.23;3.10;;;6.30;1.00;;;;;;5089178;28;20426;-44
2023/04/03 07:23:37;;;;;;;6.03;3.60;;;6.40;1.00;;;;;;5090004;28;20429;-44
2023/04/03 07:26:03;;;;;;;3.40;3.10;;;6.20;1.00;;;;;;5092428;28;20411;-44
2023/04/03 07:28:29;;;;;;;4.93;3.77;;;6.40;1.00;;;;;;5090905;28;20216;-43
2023/04/03 07:31:01;;;;;;;5.13;3.63;;;6.60;1.00;;;;;;5092910;28;20193;-44
2023/04/03 07:33:26;;;;;;;5.10;3.57;;;6.60;1.00;;;;;;5092496;28;20436;-45
2023/04/03 07:35:52;;;;;;;4.23;3.83;;;6.90;1.00;;;;;;5092444;28;20422;-44
2023/04/03 07:38:18;;;;;;;4.90;3.77;;;6.90;1.00;;;;;;5090069;28;20230;-43
2023/04/03 07:40:48;;;;;;;3.90;3.23;;;6.80;1.00;;;;;;5090428;28;20226;-46
2023/04/03 07:43:15;;;;;;;5.73;3.20;;;6.70;1.00;;;;;;5091354;28;20514;-43
2023/04/03 07:45:41;;;;;;;4.07;3.23;;;6.80;1.00;;;;;;5091705;28;20433;-44
2023/04/03 07:48:07;;;;;;;3.77;3.47;;;7.00;1.00;;;;;;5090785;28;20735;-43
2023/04/03 07:50:32;;;;;;;3.67;3.23;;;7.30;1.00;;;;;;5092548;28;20626;-44
2023/04/03 07:52:58;;;;;;;4.93;3.33;;;7.60;1.00;;;;;;5093456;28;20482;-46
2023/04/03 07:55:25;;;;;;;4.90;3.53;;;7.90;1.00;;;;;;5093548;28;20164;-46
2023/04/03 07:57:51;;;;;;;3.73;3.43;;;8.00;1.00;;;;;;5094994;28;20516;-45
2023/04/03 08:00:19;;;;;;;4.10;3.40;;;8.30;1.00;;;;;;5094517;28;20412;-46
2023/04/03 08:02:50;;;;;;;4.07;2.93;;;8.60;1.00;;;;;;5092921;28;20510;-48
2023/04/03 08:05:17;;;;;;;3.93;3.17;;;8.70;1.00;;;;;;5092374;28;20728;-45
2023/04/03 08:07:42;;;;;;;6.57;3.40;;;9.00;1.00;;;;;;5091664;28;20426;-46
2023/04/03 08:10:08;;;;;;;4.30;3.13;;;9.40;1.00;;;;;;5090062;28;20503;-46
2023/04/03 08:12:34;;;;;;;3.40;3.10;;;9.60;1.00;;;;;;5089489;28;20219;-46
2023/04/03 08:15:01;;;;;;;5.33;2.97;;;9.70;1.00;;;;;;5091902;28;20693;-42
2023/04/03 08:17:26;;;;;;;4.83;3.30;;;9.70;1.00;;;;;;5093020;28;20427;-43
2023/04/03 08:19:52;;;;;;;3.23;2.93;;;9.60;1.00;;;;;;5095491;28;20734;-44
2023/04/03 08:22:18;;;;;;;5.10;3.50;;;9.40;1.00;;;;;;5096005;28;20556;-42
2023/04/03 08:24:43;;;;;;;3.20;2.90;;;9.40;1.00;;;;;;5093562;28;20578;-42
2023/04/03 08:27:09;;;;;;;6.33;3.37;;;9.40;1.00;;;;;;5090293;28;20188;-43
2023/04/03 08:29:37;;;;;;;4.03;3.63;;;9.30;1.00;;;;;;5092279;28;20230;-46
2023/04/03 08:32:03;;;;;;;4.90;3.87;;;9.40;1.00;;;;;;5092325;28;20470;-44
2023/04/03 08:34:29;;;;;;;4.77;4.03;;;9.20;1.00;;;;;;5094126;28;20521;-44
2023/04/03 08:36:55;;;;;;;3.57;3.27;;;9.20;1.00;;;;;;5093032;28;20783;-46
2023/04/03 08:39:21;;;;;;;4.80;3.80;;;9.20;1.00;;;;;;5090741;28;20264;-43
2023/04/03 08:41:47;;;;;;;4.20;3.40;;;9.70;1.00;;;;;;5091899;28;20459;-43
2023/04/03 08:44:47;;;;;;;4.87;3.40;;;9.90;1.00;;;;;;5092021;28;20705;-44
2023/04/03 08:47:50;;;;;;;3.70;3.03;;;10.20;1.00;;;;;;5090733;28;20525;-45
2023/04/03 08:50:23;;;;;;;3.90;3.50;;;10.50;1.00;;;;;;5089271;28;20440;-44
2023/04/03 08:52:52;;;;;;;4.30;3.20;;;10.40;1.00;;;;;;5090726;28;20474;-46
2023/04/03 08:55:25;;;;;;;4.77;3.67;;;10.30;1.00;;;;;;5091786;28;20520;-44
2023/04/03 08:57:58;;;;;;;5.10;3.40;;;10.50;1.00;;;;;;5091338;28;20525;-43
2023/04/03 09:00:25;;;;;;;5.07;3.50;;;10.70;1.00;;;;;;5091657;28;20418;-44
2023/04/03 09:02:53;;;;;;;5.50;4.33;;;10.60;1.00;;;;;;5092360;28;20438;-44
2023/04/03 09:05:39;;;;;;;4.73;3.73;;;11.00;1.00;;;;;;5090951;28;20423;-45
2023/04/03 09:08:12;;;;;;;5.57;4.63;;;11.20;1.00;;;;;;5090968;28;20434;-43
2023/04/03 09:10:39;;;;;;;5.53;3.30;;;11.10;1.00;;;;;;5090519;28;20418;-45
2023/04/03 09:13:09;;;;;;;3.53;3.23;;;10.50;1.00;;;;;;5089275;28;20839;-46
2023/04/03 09:15:35;;;;;;;4.47;3.70;;;10.80;1.00;;;;;;5090834;28;20430;-45
2023/04/03 09:18:20;;;;;;;5.03;3.70;;;10.80;1.00;;;;;;5087554;28;20758;-45
2023/04/03 09:21:12;;;;;;;5.27;4.20;;;10.40;1.00;;;;;;5087685;28;20172;-44
2023/04/03 09:23:50;;;;;;;4.57;3.40;;;9.90;1.00;;;;;;5089364;28;20533;-45
2023/04/03 09:26:30;;;;;;;4.33;3.90;;;9.60;1.00;;;;;;5096727;28;20418;-43
2023/04/03 09:29:01;;;;;;;8.67;4.70;;;9.40;1.00;;;;;;5097817;28;20474;-46
2023/04/03 09:31:31;;;;;;;4.90;4.20;;;9.20;1.00;;;;;;5096339;28;20488;-43
2023/04/03 09:34:03;;;;;;;4.90;3.70;;;9.30;1.00;;;;;;5079039;28;20762;-46
2023/04/03 09:36:45;;;;;;;4.03;3.63;;;9.20;1.00;;;;;;5097512;28;20529;-43
2023/04/03 09:39:14;;;;;;;5.40;3.60;;;9.00;1.00;;;;;;5097361;28;20406;-45
2023/04/03 09:41:40;;;;;;;4.27;3.87;;;8.60;1.00;;;;;;5096595;28;20477;-47
2023/04/03 09:44:21;;;;;;;3.60;3.40;;;8.30;1.00;;;;;;5096048;28;20501;-44
2023/04/03 09:46:47;;;;;;;3.83;3.53;;;8.20;1.00;;;;;;5088058;28;20828;-43
2023/04/03 09:49:12;;;;;;;4.20;3.60;;;8.00;1.00;;;;;;5096149;28;20442;-45
2023/04/03 09:51:38;;;;;;;5.50;5.00;;;7.80;1.00;;;;;;5094445;28;20536;-45
2023/04/03 09:54:37;;;;;;;7.20;3.80;;;7.60;1.00;;;;;;5076838;28;20230;-47
2023/04/03 09:57:11;;;;;;;5.00;3.60;;;7.50;1.00;;;;;;5095772;28;20198;-43
2023/04/03 09:59:42;;;;;;;3.90;3.10;;;7.50;1.00;;;;;;5093849;28;21013;-45
2023/04/03 10:02:11;;;;;;;4.43;3.37;;;7.50;1.00;;;;;;5094479;28;20426;-44
2023/04/03 10:04:41;;;;;;;4.40;3.10;;;7.60;1.00;;;;;;5093989;28;20476;-46
2023/04/03 10:07:35;;;;;;;4.13;3.30;;;7.60;1.00;;;;;;5095581;28;20664;-44
2023/04/03 10:10:16;;;;;;;3.37;3.07;;;7.80;1.00;;;;;;5091601;28;20681;-45
2023/04/03 10:12:42;;;;;;;3.67;3.20;;;8.30;1.00;;;;;;5093836;28;20559;-45
2023/04/03 10:15:16;;;;;;;4.80;2.90;;;8.70;1.00;;;;;;5093380;28;20438;-44
2023/04/03 10:18:00;;;;;;;5.00;4.00;;;9.70;1.00;;;;;;5073081;28;20190;-44
2023/04/03 10:20:31;;;;;;;4.57;3.00;;;10.60;1.00;;;;;;5073602;28;20834;-45
2023/04/03 10:23:03;;;;;;;3.60;3.30;;;11.70;1.00;;;;;;5094169;28;20669;-44
2023/04/03 10:26:00;;;;;;;6.37;2.90;;;12.60;1.00;;;;;;5093408;28;20421;-44
2023/04/03 10:28:51;;;;;;;3.63;3.20;;;13.20;1.00;;;;;;5092144;28;20470;-44
2023/04/03 10:31:23;;;;;;;4.07;2.73;;;12.80;1.00;;;;;;5094255;28;20457;-43
2023/04/03 10:34:31;;;;;;;4.33;3.33;;;12.80;1.00;;;;;;5093499;28;20790;-44
2023/04/03 10:37:16;;;;;;;3.40;3.03;;;12.60;1.00;;;;;;5031141;28;20448;-43
2023/04/03 10:39:53;;;;;;;3.33;3.03;;;12.10;1.00;;;;;;5030405;28;20547;-43
2023/04/03 10:42:29;;;;;;;3.40;2.77;;;11.60;1.00;;;;;;5067957;28;20450;-46
2023/04/03 10:45:20;;;;;;;4.63;2.97;;;11.10;1.00;;;;;;5092659;28;20421;-45
2023/04/03 10:47:56;;;;;;;4.50;3.20;;;10.50;1.00;;;;;;5092212;28;20854;-44
2023/04/03 10:50:34;;;;;;;8.73;3.00;;;10.10;1.00;;;;;;5094949;28;20418;-44
2023/04/03 10:53:32;;;;;;;4.40;3.20;;;9.90;1.00;;;;;;5089217;28;20516;-45
2023/04/03 10:56:06;;;;;;;3.03;2.70;;;10.10;1.00;;;;;;5090510;28;20402;-44
2023/04/03 10:58:44;;;;;;;4.60;3.23;;;10.30;1.00;;;;;;5091194;28;20418;-43
2023/04/03 11:01:15;;;;;;;3.17;2.70;;;10.50;1.00;;;;;;5092032;28;20418;-45
2023/04/03 11:03:56;;;;;;;3.50;2.70;;;10.30;1.00;;;;;;5092314;28;20779;-43
2023/04/03 11:06:24;;;;;;;2.63;2.43;;;10.20;1.00;;;;;;5092909;28;20782;-44
2023/04/03 11:08:56;;;;;;;2.90;2.50;;;10.10;1.00;;;;;;5093701;28;20417;-44
2023/04/03 11:11:27;;;;;;;6.70;3.47;;;9.90;1.00;;;;;;5091584;28;20574;-46
2023/04/03 11:14:02;;;;;;;6.07;3.40;;;9.80;1.00;;;;;;5089018;28;20707;-43
2023/04/03 11:16:30;;;;;;;4.53;3.40;;;9.60;1.00;;;;;;5090199;28;20426;-44
2023/04/03 11:19:01;;;;;;;3.50;2.70;;;9.50;1.00;;;;;;5075029;28;20438;-44
2023/04/03 11:21:46;;;;;;;3.57;2.90;;;9.50;1.00;;;;;;5088578;28;20518;-45
2023/04/03 11:24:20;;;;;;;3.67;3.30;;;9.40;1.00;;;;;;5072575;28;20449;-43
2023/04/03 11:26:47;;;;;;;4.93;3.50;;;9.50;1.00;;;;;;5093820;28;20429;-43
2023/04/03 11:29:21;;;;;;;5.47;3.37;;;9.20;1.00;;;;;;5092686;28;20489;-45
2023/04/03 11:32:06;;;;;;;9.00;5.20;;;9.10;1.00;;;;;;5090594;28;20484;-44
2023/04/03 11:34:41;;;;;;;5.20;3.40;;;8.90;1.00;;;;;;5088656;28;20509;-43
2023/04/03 11:37:28;;;;;;;6.47;3.80;;;8.70;1.00;;;;;;5089473;28;20430;-43
2023/04/03 11:40:22;;;;;;;6.27;3.00;;;8.50;1.00;;;;;;5088494;28;20749;-44
2023/04/03 11:42:51;;;;;;;5.40;3.10;;;8.20;1.00;;;;;;5092171;28;20694;-45
2023/04/03 11:45:29;;;;;;;6.27;3.37;;;7.90;1.00;;;;;;5091256;28;20478;-44
2023/04/03 11:47:56;;;;;;;5.00;3.50;;;7.80;1.00;;;;;;5089916;28;20429;-45
2023/04/03 11:50:34;;;;;;;4.40;3.17;;;8.00;1.00;;;;;;5093146;28;20426;-45
2023/04/03 11:53:06;;;;;;;3.50;2.97;;;8.20;1.00;;;;;;5095114;28;20580;-43
2023/04/03 11:55:31;;;;;;;3.30;2.70;;;8.30;1.00;;;;;;5091339;28;20411;-45
2023/04/03 11:58:00;;;;;;;3.77;2.77;;;8.30;1.00;;;;;;5088376;28;20720;-44
2023/04/03 12:00:46;;;;;;;4.53;3.00;;;8.40;1.00;;;;;;5088613;28;20244;-44
2023/04/03 12:03:26;;;;;;;5.10;2.80;;;8.40;1.00;;;;;;5087038;28;20544;-44
2023/04/03 12:05:57;;;;;;;3.43;2.50;;;8.20;1.00;;;;;;5090439;28;20596;-46
2023/04/03 12:08:30;;;;;;;4.80;2.20;;;8.10;1.00;;;;;;5089006;28;20585;-44
2023/04/03 12:11:11;;;;;;;5.87;2.83;;;8.10;1.00;;;;;;5088058;28;20638;-43
2023/04/03 12:13:41;;;;;;;3.83;2.47;;;8.20;1.00;;;;;;5088882;28;20501;-47
2023/04/03 12:16:18;;;;;;;4.07;2.20;;;8.40;1.00;;;;;;5088876;28;20841;-45
2023/04/03 12:18:53;;;;;;;3.70;2.90;;;8.50;1.00;;;;;;5089827;28;20863;-43
2023/04/03 12:21:33;;;;;;;5.63;4.10;;;8.50;1.00;;;;;;5090378;28;20403;-44
2023/04/03 12:24:08;;;;;;;3.47;2.60;;;8.80;1.00;;;;;;5089799;28;20755;-44
2023/04/03 12:26:48;;;;;;;3.43;2.57;;;8.90;1.00;;;;;;5089343;28;20511;-45
2023/04/03 12:29:23;;;;;;;7.37;2.80;;;8.80;1.00;;;;;;5089596;28;20465;-47
2023/04/03 12:32:07;;;;;;;3.70;2.70;;;9.00;1.00;;;;;;5089399;28;20530;-44
2023/04/03 12:35:02;;;;;;;4.63;3.10;;;8.80;1.00;;;;;;5089155;28;20487;-42
2023/04/03 12:37:39;;;;;;;4.70;2.43;;;8.70;1.00;;;;;;5089333;28;20579;-44
2023/04/03 12:40:31;;;;;;;3.43;2.60;;;8.40;1.00;;;;;;5090001;28;20717;-45
2023/04/03 12:43:35;;;;;;;3.03;2.73;;;8.10;1.00;;;;;;5091089;28;20422;-45
2023/04/03 12:46:06;;;;;;;3.03;2.27;;;8.00;1.00;;;;;;5093147;28;20554;-43
2023/04/03 12:48:58;;;;;;;4.07;2.37;;;8.00;1.00;;;;;;5092803;28;20824;-47
2023/04/03 12:51:29;;;;;;;4.80;2.37;;;8.00;1.00;;;;;;5090957;28;20509;-44
2023/04/03 12:54:00;;;;;;;4.30;2.70;;;7.80;1.00;;;;;;5090641;28;20415;-43
2023/04/03 12:56:28;;;;;;;4.57;2.60;;;7.90;1.00;;;;;;5092938;28;20441;-46
2023/04/03 12:58:58;;;;;;;3.93;3.03;;;7.90;1.00;;;;;;5091682;28;20728;-46
2023/04/03 13:01:25;;;;;;;3.90;2.80;;;8.00;1.00;;;;;;5090024;28;20430;-44
2023/04/03 13:03:57;;;;;;;5.33;2.53;;;8.30;1.00;;;;;;5088420;28;20989;-45
2023/04/03 13:06:38;;;;;;;3.20;2.43;;;8.70;1.00;;;;;;5087963;28;20507;-46
2023/04/03 13:09:04;;;;;;;3.13;2.43;;;9.20;1.00;;;;;;5089101;28;20411;-44
2023/04/03 13:11:40;;;;;;;3.03;2.37;;;9.80;1.00;;;;;;5089882;28;20539;-44
2023/04/03 13:14:25;;;;;;;3.80;2.40;;;10.30;1.00;;;;;;5092675;28;20268;-45
2023/04/03 13:16:57;;;;;;;3.67;2.93;;;10.80;1.00;;;;;;5089940;28;20424;-45